Time;durP1;ratioP1;P1;durP2;ratioP2;P2;SDS_P1;SDS_P2;PMS_P1;PMS_P2;Temp;Humidity;BMP_temperature;BMP_pressure;BME280_temperature;BME280_humidity;BME280_pressure;Samples;Min_cycle;Max_cycle;Signal;HPM_P1;HPM_P2
2021/07/31 00:00:18;;;;;;;7.07;3.15;;;;;;;17.76;68.53;100384.25;5079163;28;20048;-71
2021/07/31 00:02:44;;;;;;;8.55;3.33;;;;;;;18.10;66.85;100373.69;5078951;28;20030;-71
2021/07/31 00:05:10;;;;;;;5.28;2.95;;;;;;;17.52;68.81;100365.84;5083323;28;20081;-71
2021/07/31 00:07:36;;;;;;;7.05;2.78;;;;;;;17.57;68.65;100368.13;5085658;28;20033;-71
2021/07/31 00:10:02;;;;;;;9.55;3.15;;;;;;;17.60;68.51;100362.59;5081194;28;20328;-71
2021/07/31 00:12:27;;;;;;;4.88;2.60;;;;;;;17.94;67.36;100374.06;5081390;28;20040;-71
2021/07/31 00:14:52;;;;;;;9.60;2.67;;;;;;;17.95;67.78;100370.44;5080677;28;20024;-71
2021/07/31 00:17:18;;;;;;;8.35;3.00;;;;;;;18.45;65.90;100372.66;5080714;28;20308;-71
2021/07/31 00:19:44;;;;;;;9.90;2.50;;;;;;;17.95;67.63;100381.03;5083421;28;20066;-71
2021/07/31 00:22:09;;;;;;;7.72;3.13;;;;;;;17.84;68.31;100378.34;5082436;28;20039;-70
2021/07/31 00:24:34;;;;;;;7.40;3.20;;;;;;;17.05;71.12;100368.50;5080730;28;20087;-70
2021/07/31 00:27:00;;;;;;;11.13;3.05;;;;;;;17.64;68.93;100374.63;5080074;28;20043;-70
2021/07/31 00:29:25;;;;;;;5.72;2.83;;;;;;;17.57;68.68;100366.34;5080638;28;20024;-70
2021/07/31 00:31:51;;;;;;;6.10;2.53;;;;;;;18.19;66.78;100372.09;5081296;28;20041;-70
2021/07/31 00:34:16;;;;;;;6.20;2.60;;;;;;;17.91;68.52;100370.81;5081809;28;20038;-70
2021/07/31 00:36:42;;;;;;;10.00;2.75;;;;;;;18.45;66.14;100375.31;5082021;28;20040;-70
2021/07/31 00:39:07;;;;;;;4.63;2.22;;;;;;;18.10;67.70;100373.69;5081142;28;20032;-70
2021/07/31 00:41:32;;;;;;;7.28;2.75;;;;;;;17.98;67.83;100362.25;5059612;28;20029;-70
2021/07/31 00:43:58;;;;;;;4.20;2.55;;;;;;;17.68;68.96;100370.75;5053703;28;20122;-70
2021/07/31 00:46:23;;;;;;;6.03;2.50;;;;;;;17.82;68.62;100377.63;5079178;28;20269;-70
2021/07/31 00:48:49;;;;;;;6.50;2.88;;;;;;;17.69;69.53;100376.94;5062615;28;20062;-70
2021/07/31 00:51:15;;;;;;;7.90;2.50;;;;;;;17.88;68.15;100379.00;5078498;28;20058;-70
2021/07/31 00:53:40;;;;;;;5.60;2.42;;;;;;;17.88;68.64;100381.66;5062419;28;20215;-70
2021/07/31 00:56:06;;;;;;;7.35;2.60;;;;;;;18.24;67.12;100375.22;5078713;28;20035;-70
2021/07/31 00:58:31;;;;;;;6.03;2.92;;;;;;;18.27;67.09;100379.47;5079218;28;20045;-70
2021/07/31 01:00:57;;;;;;;5.20;2.20;;;;;;;17.97;67.81;100372.97;5080168;28;20072;-70
2021/07/31 01:03:22;;;;;;;6.53;2.40;;;;;;;18.00;68.17;100373.56;5079597;28;20201;-70
2021/07/31 01:05:48;;;;;;;10.10;2.70;;;;;;;17.57;69.73;100373.41;5080136;28;20090;-70
2021/07/31 01:08:13;;;;;;;8.85;2.55;;;;;;;17.79;69.19;100384.03;5078537;28;20024;-70
2021/07/31 01:10:38;;;;;;;6.05;2.70;;;;;;;17.89;69.17;100380.69;5080148;28;20095;-70
2021/07/31 01:13:04;;;;;;;7.70;2.80;;;;;;;17.88;69.62;100384.28;5080449;28;20040;-70
2021/07/31 01:15:29;;;;;;;9.18;2.92;;;;;;;17.65;70.28;100369.22;5061845;28;20090;-70
2021/07/31 01:17:55;;;;;;;7.18;3.28;;;;;;;17.38;72.60;100376.66;5079822;28;20121;-70
2021/07/31 01:20:20;;;;;;;7.85;2.88;;;;;;;17.03;74.04;100381.00;5078274;28;20037;-70
2021/07/31 01:22:46;;;;;;;9.00;2.60;;;;;;;17.20;72.83;100378.88;5079024;28;20056;-70
2021/07/31 01:25:11;;;;;;;5.43;3.30;;;;;;;16.49;76.71;100382.28;5080526;28;20077;-70
2021/07/31 01:27:37;;;;;;;8.80;2.95;;;;;;;17.46;71.72;100382.19;5082449;28;20032;-70
2021/07/31 01:30:03;;;;;;;7.55;2.30;;;;;;;17.69;70.11;100383.06;5064158;28;20037;-70
2021/07/31 01:32:28;;;;;;;4.95;2.10;;;;;;;17.54;71.78;100377.16;5059832;28;20040;-70
2021/07/31 01:34:54;;;;;;;4.47;2.33;;;;;;;17.44;71.25;100379.69;5084184;28;20257;-70
2021/07/31 01:37:19;;;;;;;7.05;2.42;;;;;;;17.20;73.72;100385.00;5083124;28;20059;-71
2021/07/31 01:39:46;;;;;;;7.50;3.10;;;;;;;16.27;78.09;100383.00;5083894;28;20048;-70
2021/07/31 01:42:12;;;;;;;9.57;2.92;;;;;;;17.53;71.08;100379.91;5081908;28;20024;-70
2021/07/31 01:44:37;;;;;;;8.65;3.28;;;;;;;17.00;73.90;100383.88;5083836;28;20082;-70
2021/07/31 01:47:03;;;;;;;7.90;2.40;;;;;;;17.34;72.96;100383.13;5082520;28;20021;-70
2021/07/31 01:49:28;;;;;;;5.97;2.78;;;;;;;17.08;74.08;100386.78;5083331;28;20094;-70
2021/07/31 01:51:54;;;;;;;9.52;3.10;;;;;;;16.89;74.87;100383.84;5083379;28;20060;-70
2021/07/31 01:54:19;;;;;;;8.90;3.50;;;;;;;16.47;76.43;100384.19;5083094;28;20050;-70
2021/07/31 01:56:47;;;;;;;10.88;4.13;;;;;;;16.44;77.54;100386.22;5058575;28;20046;-70
2021/07/31 01:59:13;;;;;;;8.27;3.10;;;;;;;17.11;73.12;100382.22;5081802;28;20068;-70
2021/07/31 02:01:38;;;;;;;7.85;2.92;;;;;;;17.84;70.09;100394.25;5081731;28;20293;-70
2021/07/31 02:04:03;;;;;;;8.55;2.60;;;;;;;18.82;66.42;100390.88;5082363;28;20040;-70
2021/07/31 02:06:29;;;;;;;6.70;2.50;;;;;;;18.13;69.73;100391.97;5065122;28;20099;-70
2021/07/31 02:08:54;;;;;;;6.35;3.20;;;;;;;18.38;68.10;100390.03;5083442;28;20099;-70
2021/07/31 02:11:20;;;;;;;9.73;3.65;;;;;;;17.31;72.70;100393.94;5082214;28;20040;-70
2021/07/31 02:13:45;;;;;;;7.03;3.28;;;;;;;17.92;69.55;100397.19;5083217;28;20044;-70
2021/07/31 02:16:10;;;;;;;14.55;4.03;;;;;;;17.31;73.44;100399.25;5061587;28;20029;-70
2021/07/31 02:18:36;;;;;;;7.45;3.20;;;;;;;17.67;71.26;100398.22;5063069;28;20096;-70
2021/07/31 02:21:01;;;;;;;10.05;4.18;;;;;;;17.54;71.67;100406.28;5031975;28;20044;-70
2021/07/31 02:23:27;;;;;;;12.48;3.83;;;;;;;17.49;72.44;100407.59;5081240;28;20093;-70
2021/07/31 02:25:52;;;;;;;8.00;2.53;;;;;;;19.09;64.92;100393.06;5082653;28;20167;-70
2021/07/31 02:28:17;;;;;;;9.65;4.03;;;;;;;18.19;68.29;100399.47;5082662;28;20129;-70
2021/07/31 02:30:43;;;;;;;10.63;3.22;;;;;;;18.09;68.95;100406.44;5082840;28;20024;-70
2021/07/31 02:33:08;;;;;;;3.88;2.13;;;;;;;18.45;67.22;100398.34;5081860;28;20047;-70
2021/07/31 02:35:34;;;;;;;8.25;3.08;;;;;;;18.34;67.64;100409.81;5080207;28;20200;-70
2021/07/31 02:38:01;;;;;;;14.95;3.25;;;;;;;18.08;68.55;100414.50;5081033;28;20040;-70
2021/07/31 02:40:27;;;;;;;9.57;3.40;;;;;;;18.07;68.24;100416.31;5080891;28;20032;-70
2021/07/31 02:42:52;;;;;;;10.20;3.95;;;;;;;17.56;70.76;100414.94;5081732;28;20129;-70
2021/07/31 02:45:17;;;;;;;9.70;3.53;;;;;;;17.95;68.69;100419.94;5082536;28;20096;-71
2021/07/31 02:47:43;;;;;;;6.57;3.10;;;;;;;18.21;68.17;100424.03;5081549;28;20032;-71
2021/07/31 02:50:08;;;;;;;6.35;2.88;;;;;;;17.71;69.73;100431.44;5083045;28;20039;-71
2021/07/31 02:52:34;;;;;;;5.03;3.05;;;;;;;17.48;70.49;100419.97;5081896;28;20036;-71
2021/07/31 02:55:02;;;;;;;4.82;2.45;;;;;;;18.50;67.09;100414.69;5080883;28;20044;-71
2021/07/31 02:57:28;;;;;;;5.85;2.63;;;;;;;18.51;66.26;100419.88;5077884;28;20250;-71
2021/07/31 02:59:53;;;;;;;7.35;3.25;;;;;;;18.00;67.87;100420.44;5082210;28;20042;-71
2021/07/31 03:02:19;;;;;;;11.52;2.90;;;;;;;18.55;65.95;100421.31;5081562;28;20052;-71
2021/07/31 03:04:44;;;;;;;10.25;2.80;;;;;;;18.30;66.73;100427.75;5081243;28;20099;-71
2021/07/31 03:07:10;;;;;;;10.98;3.53;;;;;;;17.87;68.81;100415.25;5082044;28;20207;-71
2021/07/31 03:09:35;;;;;;;5.75;2.72;;;;;;;17.97;68.19;100413.56;5081848;28;20343;-71
2021/07/31 03:12:00;;;;;;;6.55;3.33;;;;;;;17.93;67.97;100421.88;5081876;28;20034;-71
2021/07/31 03:14:26;;;;;;;6.43;2.65;;;;;;;17.92;68.30;100417.53;5081289;28;20028;-71
2021/07/31 03:16:51;;;;;;;8.27;3.45;;;;;;;17.70;68.86;100420.97;5081819;28;20053;-71
2021/07/31 03:19:17;;;;;;;10.13;3.00;;;;;;;18.58;66.00;100423.72;5081408;28;20319;-71
2021/07/31 03:21:42;;;;;;;5.57;3.20;;;;;;;17.61;69.50;100422.53;5060614;28;20372;-71
2021/07/31 03:24:08;;;;;;;10.27;3.35;;;;;;;17.77;68.70;100424.81;5060964;28;20082;-71
2021/07/31 03:26:33;;;;;;;7.65;2.70;;;;;;;17.87;68.20;100427.66;5068290;28;20224;-71
2021/07/31 03:28:59;;;;;;;7.28;3.83;;;;;;;17.50;69.70;100430.44;5081737;28;20047;-71
2021/07/31 03:31:24;;;;;;;9.43;3.80;;;;;;;17.63;68.81;100431.22;5079680;28;20036;-71
2021/07/31 03:33:50;;;;;;;8.95;2.67;;;;;;;17.55;69.09;100442.34;5081764;28;20091;-71
2021/07/31 03:36:15;;;;;;;3.55;2.83;;;;;;;17.72;68.69;100442.88;5080836;28;20099;-71
2021/07/31 03:38:41;;;;;;;5.10;3.40;;;;;;;17.15;70.75;100434.78;5080648;28;20028;-71
2021/07/31 03:41:06;;;;;;;11.07;4.38;;;;;;;16.62;72.54;100443.03;5081662;28;20086;-71
2021/07/31 03:43:32;;;;;;;9.82;2.83;;;;;;;17.58;68.79;100442.13;5081003;28;20043;-71
2021/07/31 03:45:57;;;;;;;8.27;3.40;;;;;;;17.87;67.25;100454.16;5081597;28;20054;-71
2021/07/31 03:48:23;;;;;;;4.55;2.40;;;;;;;17.71;68.03;100451.78;5059095;28;20252;-71
2021/07/31 03:50:48;;;;;;;14.50;3.90;;;;;;;17.14;69.86;100443.69;5072143;28;20389;-71
2021/07/31 03:53:14;;;;;;;8.55;2.95;;;;;;;17.37;70.08;100447.28;5080671;28;20099;-71
2021/07/31 03:55:39;;;;;;;7.20;2.50;;;;;;;18.35;66.43;100449.41;5081167;28;20256;-71
2021/07/31 03:58:04;;;;;;;5.93;2.60;;;;;;;18.11;66.38;100459.31;5079818;28;20024;-71
2021/07/31 04:00:30;;;;;;;5.70;2.60;;;;;;;17.80;66.82;100461.69;5080158;28;20048;-71
2021/07/31 04:02:56;;;;;;;5.60;2.33;;;;;;;17.49;67.67;100465.81;5079743;28;20036;-70
2021/07/31 04:05:21;;;;;;;7.22;2.83;;;;;;;17.57;67.47;100463.44;5079130;28;20396;-71
2021/07/31 04:07:46;;;;;;;3.22;2.47;;;;;;;17.72;66.76;100470.22;5079795;28;20058;-71
2021/07/31 04:10:12;;;;;;;7.50;2.58;;;;;;;17.33;68.18;100472.25;5080417;28;20032;-71
2021/07/31 04:12:37;;;;;;;3.80;1.85;;;;;;;17.91;68.17;100477.63;5081008;28;20040;-71
2021/07/31 04:15:03;;;;;;;4.13;2.20;;;;;;;17.67;66.74;100476.84;5080979;28;20044;-71
2021/07/31 04:17:28;;;;;;;5.00;2.20;;;;;;;17.29;68.50;100476.09;5080248;28;20257;-71
2021/07/31 04:19:53;;;;;;;4.65;2.17;;;;;;;17.04;68.96;100477.06;5078423;28;20044;-71
2021/07/31 04:22:19;;;;;;;4.05;2.08;;;;;;;17.64;67.74;100475.25;5076751;28;20034;-71
2021/07/31 04:24:44;;;;;;;8.07;2.20;;;;;;;17.56;68.02;100481.13;5079851;28;20043;-71
2021/07/31 04:27:10;;;;;;;5.05;1.90;;;;;;;17.79;66.88;100487.31;5079223;28;20039;-71
2021/07/31 04:29:35;;;;;;;3.42;2.05;;;;;;;17.92;65.76;100479.31;5079607;28;20103;-71
2021/07/31 04:32:01;;;;;;;3.10;2.13;;;;;;;17.79;67.76;100487.31;5078243;28;20302;-71
2021/07/31 04:34:29;;;;;;;2.95;1.77;;;;;;;17.78;66.74;100485.63;5076947;28;20054;-71
2021/07/31 04:36:55;;;;;;;3.97;1.90;;;;;;;17.52;67.51;100487.63;5078135;28;20162;-71
2021/07/31 04:39:21;;;;;;;4.15;2.13;;;;;;;17.90;66.30;100485.66;5076982;28;20068;-71
2021/07/31 04:41:46;;;;;;;5.68;1.88;;;;;;;17.81;67.26;100488.06;5079110;28;20057;-71
2021/07/31 04:44:12;;;;;;;3.67;2.00;;;;;;;18.12;66.43;100498.09;5079963;28;20044;-71
2021/07/31 04:46:37;;;;;;;1.92;1.67;;;;;;;17.97;67.40;100497.47;5080219;28;20040;-71
2021/07/31 04:49:02;;;;;;;7.38;2.50;;;;;;;17.75;67.80;100493.78;5077599;28;20028;-71
2021/07/31 04:51:28;;;;;;;5.15;2.10;;;;;;;18.09;66.89;100501.84;5069207;28;20036;-71
2021/07/31 04:53:53;;;;;;;3.05;2.30;;;;;;;17.70;68.02;100511.00;5078048;28;20029;-71
2021/07/31 04:56:18;;;;;;;6.97;2.85;;;;;;;16.83;71.82;100508.59;5060184;28;20099;-71
2021/07/31 04:58:44;;;;;;;4.50;2.60;;;;;;;17.56;69.21;100509.41;5077769;28;20097;-71
2021/07/31 05:01:09;;;;;;;3.58;2.05;;;;;;;18.54;66.24;100509.81;5076732;28;20347;-71
2021/07/31 05:03:35;;;;;;;3.10;2.13;;;;;;;18.53;66.11;100515.22;5059353;28;20043;-71
2021/07/31 05:06:04;;;;;;;3.78;2.30;;;;;;;17.60;68.70;100508.22;5077578;28;20032;-71
2021/07/31 05:08:29;;;;;;;8.07;2.63;;;;;;;17.29;70.35;100517.63;5041299;28;20190;-71
2021/07/31 05:10:54;;;;;;;4.15;2.22;;;;;;;17.29;70.58;100518.44;5060182;28;20228;-71
2021/07/31 05:13:20;;;;;;;7.65;2.40;;;;;;;17.58;69.31;100520.72;5066793;28;20043;-71
2021/07/31 05:15:46;;;;;;;5.00;2.38;;;;;;;17.52;69.25;100522.03;5080257;28;20266;-71
2021/07/31 05:18:12;;;;;;;12.38;2.20;;;;;;;18.20;67.40;100531.00;5078199;28;20033;-73
2021/07/31 05:20:43;;;;;;;8.40;2.50;;;;;;;17.83;68.31;100530.31;5048131;28;20205;-72
2021/07/31 05:23:09;;;;;;;4.75;2.35;;;;;;;18.58;65.76;100535.09;5075729;28;20073;-72
2021/07/31 05:25:34;;;;;;;3.88;1.70;;;;;;;19.04;63.20;100535.06;5061893;28;20320;-72
2021/07/31 05:28:00;;;;;;;3.47;2.25;;;;;;;18.78;64.43;100537.97;5078475;28;20024;-72
2021/07/31 05:30:25;;;;;;;14.45;1.92;;;;;;;19.18;63.26;100537.44;5078223;28;20044;-72
2021/07/31 05:32:51;;;;;;;8.73;2.10;;;;;;;19.41;63.54;100537.34;5078704;28;20028;-72
2021/07/31 05:35:17;;;;;;;2.80;1.83;;;;;;;19.67;62.43;100546.66;5079351;28;20024;-72
2021/07/31 05:37:42;;;;;;;2.47;1.60;;;;;;;19.36;62.81;100541.25;5078898;28;20028;-72
2021/07/31 05:40:08;;;;;;;6.50;1.63;;;;;;;19.08;63.33;100545.31;5062088;28;20039;-72
2021/07/31 05:42:33;;;;;;;4.80;1.80;;;;;;;19.97;61.32;100549.53;5078475;28;20044;-72
2021/07/31 05:45:00;;;;;;;5.18;1.80;;;;;;;18.87;63.11;100549.72;5078815;28;20104;-72
2021/07/31 05:47:27;;;;;;;11.23;2.13;;;;;;;19.31;63.82;100553.22;5078280;28;20058;-72
2021/07/31 05:49:56;;;;;;;8.45;1.73;;;;;;;19.25;63.50;100551.91;5079867;28;20095;-72
2021/07/31 05:52:25;;;;;;;10.43;1.80;;;;;;;20.19;60.93;100557.38;5079639;28;20028;-72
2021/07/31 05:54:51;;;;;;;9.77;2.30;;;;;;;19.58;63.06;100557.22;5078887;28;20075;-72
2021/07/31 05:57:16;;;;;;;4.90;1.75;;;;;;;19.89;61.73;100558.19;5078107;28;20311;-72
2021/07/31 05:59:42;;;;;;;5.72;1.98;;;;;;;19.80;62.38;100553.66;5078581;28;20062;-72
2021/07/31 06:02:07;;;;;;;16.20;1.88;;;;;;;20.07;61.38;100556.59;5058067;28;20025;-72
2021/07/31 06:04:33;;;;;;;8.40;1.52;;;;;;;20.34;60.05;100560.53;5058035;28;20041;-72
2021/07/31 06:07:00;;;;;;;6.32;1.73;;;;;;;19.72;62.54;100560.41;5058579;28;20041;-72
2021/07/31 06:09:26;;;;;;;4.88;1.85;;;;;;;19.71;62.52;100557.88;5058077;28;20059;-72
2021/07/31 06:11:51;;;;;;;2.85;1.25;;;;;;;19.95;61.22;100557.66;5062676;28;20041;-72
2021/07/31 06:14:17;;;;;;;3.90;1.13;;;;;;;19.90;61.44;100559.84;5047434;28;20055;-72
2021/07/31 06:16:42;;;;;;;3.78;1.73;;;;;;;19.90;61.23;100559.84;5043699;28;20033;-72
2021/07/31 06:19:07;;;;;;;5.70;1.80;;;;;;;19.52;61.98;100567.38;5060254;28;20029;-72
2021/07/31 06:21:33;;;;;;;4.43;1.58;;;;;;;19.86;61.75;100563.75;5061071;28;20227;-72
2021/07/31 06:23:58;;;;;;;12.30;1.30;;;;;;;19.99;60.91;100563.53;5060354;28;20029;-72
2021/07/31 06:26:24;;;;;;;3.40;1.50;;;;;;;19.75;61.99;100565.50;5060596;28;20037;-72
2021/07/31 06:28:49;;;;;;;8.02;1.70;;;;;;;19.88;61.38;100565.31;5061144;28;20143;-72
2021/07/31 06:31:14;;;;;;;4.43;1.77;;;;;;;20.12;60.77;100567.69;5080011;28;20041;-72
2021/07/31 06:33:40;;;;;;;4.88;1.30;;;;;;;19.82;61.25;100568.47;5073173;28;20028;-72
2021/07/31 06:36:05;;;;;;;2.22;1.42;;;;;;;19.62;62.48;100569.28;5081651;28;20032;-72
2021/07/31 06:38:31;;;;;;;6.57;1.85;;;;;;;19.33;62.91;100578.66;5060940;28;20033;-72
2021/07/31 06:40:56;;;;;;;5.03;1.33;;;;;;;20.30;60.30;100569.75;5077061;28;20044;-72
2021/07/31 06:43:21;;;;;;;6.05;1.25;;;;;;;19.72;62.00;100576.34;5082141;28;20024;-72
2021/07/31 06:45:47;;;;;;;3.25;1.48;;;;;;;19.19;63.40;100578.94;5082353;28;20146;-71
2021/07/31 06:48:12;;;;;;;9.18;1.67;;;;;;;19.46;62.19;100572.34;5081021;28;20091;-71
2021/07/31 06:50:38;;;;;;;5.32;1.70;;;;;;;19.44;63.05;100582.25;5080792;28;20107;-71
2021/07/31 06:53:03;;;;;;;3.05;1.40;;;;;;;19.42;62.59;100576.22;5081423;28;20030;-71
2021/07/31 06:55:28;;;;;;;4.95;1.50;;;;;;;19.83;61.68;100575.47;5080547;28;20103;-71
2021/07/31 06:57:54;;;;;;;4.55;2.10;;;;;;;19.32;63.38;100574.31;5080907;28;20032;-71
2021/07/31 07:00:19;;;;;;;7.93;1.40;;;;;;;19.81;61.41;100582.75;5062502;28;20256;-71
2021/07/31 07:02:45;;;;;;;3.08;1.45;;;;;;;19.48;62.05;100575.72;5079686;28;20043;-71
2021/07/31 07:05:10;;;;;;;6.40;1.52;;;;;;;19.69;61.97;100600.50;5080897;28;20346;-71
2021/07/31 07:07:37;;;;;;;1.88;1.25;;;;;;;19.93;61.69;100605.59;5076913;28;20064;-72
2021/07/31 07:10:03;;;;;;;2.95;1.50;;;;;;;20.02;61.26;100603.16;5079710;28;20074;-72
2021/07/31 07:12:29;;;;;;;3.03;1.48;;;;;;;19.75;61.98;100602.69;5062264;28;20410;-72
2021/07/31 07:14:54;;;;;;;4.68;1.67;;;;;;;20.44;59.97;100600.47;5081495;28;20032;-72
2021/07/31 07:17:19;;;;;;;1.52;1.42;;;;;;;20.22;60.51;100612.09;5081571;28;20078;-72
2021/07/31 07:19:45;;;;;;;3.08;1.50;;;;;;;19.50;63.45;100614.47;5082251;28;20040;-72
2021/07/31 07:22:10;;;;;;;2.72;1.40;;;;;;;19.03;65.73;100610.31;5080486;28;20028;-72
2021/07/31 07:24:36;;;;;;;2.67;1.65;;;;;;;19.08;65.09;100624.06;5080394;28;20264;-72
2021/07/31 07:27:02;;;;;;;8.57;1.60;;;;;;;19.27;64.24;100626.13;5080993;28;20178;-72
2021/07/31 07:29:27;;;;;;;2.92;1.40;;;;;;;18.90;66.88;100629.03;5080046;28;20158;-72
2021/07/31 07:31:53;;;;;;;2.53;1.10;;;;;;;20.15;61.11;100622.41;5081111;28;20032;-72
2021/07/31 07:34:18;;;;;;;1.88;1.27;;;;;;;19.63;63.23;100622.28;5076087;28;20040;-72
2021/07/31 07:36:44;;;;;;;4.25;1.80;;;;;;;20.37;62.14;100621.44;5061860;28;20033;-72
2021/07/31 07:39:09;;;;;;;2.20;1.23;;;;;;;20.47;61.56;100627.66;5060480;28;20044;-72
2021/07/31 07:41:35;;;;;;;5.32;1.50;;;;;;;19.71;63.27;100638.41;5072497;28;20033;-71
2021/07/31 07:44:00;;;;;;;4.57;1.60;;;;;;;19.52;63.73;100646.22;5063638;28;20314;-72
2021/07/31 07:46:26;;;;;;;1.10;1.00;;;;;;;19.62;63.84;100648.97;5081105;28;20032;-74
2021/07/31 07:48:51;;;;;;;4.70;1.70;;;;;;;19.93;61.90;100656.09;5063192;28;20358;-73
2021/07/31 07:51:16;;;;;;;6.57;1.35;;;;;;;19.57;63.57;100657.28;5080968;28;20024;-72
2021/07/31 07:53:42;;;;;;;3.85;1.45;;;;;;;19.85;62.98;100655.06;5080099;28;20331;-73
2021/07/31 07:56:07;;;;;;;2.90;1.80;;;;;;;19.77;63.03;100657.50;5063822;28;20109;-73
2021/07/31 07:58:33;;;;;;;7.43;1.60;;;;;;;20.26;63.42;100656.91;5068896;28;20037;-73
2021/07/31 08:00:58;;;;;;;4.57;1.65;;;;;;;19.90;62.42;100661.69;5048648;28;20209;-73
2021/07/31 08:03:24;;;;;;;2.75;1.55;;;;;;;19.33;64.36;100666.28;5077870;28;20043;-73
2021/07/31 08:05:49;;;;;;;7.40;1.60;;;;;;;19.98;62.30;100661.06;5073926;28;20036;-73
2021/07/31 08:08:14;;;;;;;5.13;1.27;;;;;;;20.48;60.96;100673.69;5048680;28;20020;-73
2021/07/31 08:10:40;;;;;;;9.25;1.40;;;;;;;20.54;60.67;100665.22;5053363;28;20209;-72
2021/07/31 08:13:05;;;;;;;5.28;1.38;;;;;;;20.87;59.11;100673.97;5075974;28;20040;-72
2021/07/31 08:15:31;;;;;;;6.20;1.52;;;;;;;20.91;58.64;100678.03;5047600;28;20259;-72
2021/07/31 08:17:56;;;;;;;11.10;2.30;;;;;;;19.38;64.66;100677.38;5041645;28;20040;-72
2021/07/31 08:20:22;;;;;;;5.13;1.50;;;;;;;19.94;62.72;100673.75;5062754;28;20063;-72
2021/07/31 08:22:48;;;;;;;5.85;1.55;;;;;;;20.04;62.70;100680.97;5063163;28;20044;-72
2021/07/31 08:25:13;;;;;;;11.32;2.03;;;;;;;20.21;62.18;100679.53;5062445;28;20032;-72
2021/07/31 08:27:38;;;;;;;7.57;1.33;;;;;;;20.43;61.51;100682.09;5063232;28;20100;-72
2021/07/31 08:30:05;;;;;;;6.97;1.95;;;;;;;20.66;61.52;100676.66;5079688;28;20219;-72
2021/07/31 08:32:30;;;;;;;15.13;3.13;;;;;;;20.81;61.46;100682.47;5062455;28;20031;-72
2021/07/31 08:34:55;;;;;;;9.55;2.55;;;;;;;21.34;59.87;100679.59;5061814;28;20033;-72
2021/07/31 08:37:21;;;;;;;7.50;2.17;;;;;;;20.84;62.76;100679.53;5078620;28;20028;-73
2021/07/31 08:39:46;;;;;;;5.93;1.33;;;;;;;21.26;59.86;100684.75;5074999;28;20442;-73
2021/07/31 08:42:12;;;;;;;7.65;2.05;;;;;;;21.16;62.28;100682.06;5074678;28;20139;-73
2021/07/31 08:44:37;;;;;;;6.43;2.30;;;;;;;21.63;58.54;100687.69;5074198;28;20369;-73
2021/07/31 08:47:04;;;;;;;7.20;2.05;;;;;;;21.13;59.90;100686.81;5075873;28;20029;-73
2021/07/31 08:49:29;;;;;;;12.25;2.58;;;;;;;21.21;61.88;100689.63;5075299;28;20037;-73
2021/07/31 08:51:55;;;;;;;9.48;1.90;;;;;;;21.05;60.45;100691.00;5076137;28;20051;-73
2021/07/31 08:54:20;;;;;;;6.25;1.70;;;;;;;21.33;59.18;100698.38;5060117;28;20039;-73
2021/07/31 08:56:45;;;;;;;13.52;2.25;;;;;;;20.44;63.27;100707.69;5075366;28;20345;-73
2021/07/31 08:59:11;;;;;;;5.43;1.98;;;;;;;20.01;64.58;100702.47;5069749;28;20037;-73
2021/07/31 09:01:36;;;;;;;10.38;2.13;;;;;;;20.71;61.54;100709.03;5077176;28;20150;-73
2021/07/31 09:04:13;;;;;;;11.35;1.92;;;;;;;20.71;61.08;100717.84;5042568;28;20409;-73
2021/07/31 09:06:38;;;;;;;5.75;1.95;;;;;;;20.83;60.90;100726.63;5061768;28;20037;-73
2021/07/31 09:09:04;;;;;;;5.82;2.15;;;;;;;21.27;59.68;100721.91;5083719;28;20410;-73
2021/07/31 09:11:29;;;;;;;15.85;2.33;;;;;;;21.05;60.23;100719.44;5090050;28;20244;-73
2021/07/31 09:14:17;;;;;;;11.30;2.00;;;;;;;21.12;59.88;100719.72;5048039;28;20040;-73
2021/07/31 09:16:44;;;;;;;8.10;1.85;;;;;;;21.18;59.96;100730.69;5075004;28;20025;-72
2021/07/31 09:19:10;;;;;;;7.47;2.13;;;;;;;21.98;57.86;100726.28;5061290;28;20032;-72
2021/07/31 09:21:36;;;;;;;9.05;2.30;;;;;;;21.09;61.83;100734.16;5074911;28;20235;-72
2021/07/31 09:24:01;;;;;;;11.20;2.47;;;;;;;20.82;62.86;100734.72;5079662;28;20035;-72
2021/07/31 09:26:37;;;;;;;7.15;2.55;;;;;;;20.58;62.23;100733.16;5052060;28;20076;-73
2021/07/31 09:29:09;;;;;;;8.70;3.20;;;;;;;20.78;61.26;100746.63;5074592;28;20046;-73
2021/07/31 09:31:36;;;;;;;5.28;1.95;;;;;;;21.29;59.29;100746.56;5055382;28;20032;-73
2021/07/31 09:34:03;;;;;;;4.18;1.60;;;;;;;20.85;60.58;100739.78;5074937;28;20332;-73
2021/07/31 09:36:35;;;;;;;5.63;1.73;;;;;;;20.49;62.14;100745.41;5077871;28;20029;-73
2021/07/31 09:39:00;;;;;;;9.82;2.40;;;;;;;20.32;62.30;100753.97;5078480;28;20219;-72
2021/07/31 09:41:26;;;;;;;3.20;1.92;;;;;;;20.69;61.30;100753.56;5053419;28;20028;-73
2021/07/31 09:44:16;;;;;;;2.70;1.98;;;;;;;21.52;58.63;100757.06;5081120;28;20028;-73
2021/07/31 09:46:45;;;;;;;5.80;2.30;;;;;;;21.57;58.21;100754.81;5061247;28;20032;-73
2021/07/31 09:49:15;;;;;;;3.53;1.70;;;;;;;21.21;59.48;100761.53;5063009;28;20095;-73
2021/07/31 09:51:45;;;;;;;6.55;1.90;;;;;;;20.77;60.58;100766.19;5060260;28;20045;-73
2021/07/31 09:54:12;;;;;;;4.75;2.00;;;;;;;21.34;59.32;100758.63;5048669;28;20034;-73
2021/07/31 09:56:39;;;;;;;3.33;1.60;;;;;;;21.45;58.66;100771.91;5089587;28;20429;-73
2021/07/31 09:59:05;;;;;;;4.28;1.92;;;;;;;21.51;58.21;100765.19;5073761;28;20361;-73
2021/07/31 10:01:30;;;;;;;3.83;1.70;;;;;;;21.55;58.02;100762.13;5077071;28;20102;-73
2021/07/31 10:03:56;;;;;;;6.40;2.83;;;;;;;20.97;59.95;100772.47;5058541;28;20044;-73
2021/07/31 10:06:22;;;;;;;2.30;1.67;;;;;;;23.02;54.38;100776.34;5058772;28;20032;-73
2021/07/31 10:08:47;;;;;;;7.68;2.60;;;;;;;24.01;51.05;100781.13;5080333;28;20040;-73
2021/07/31 10:11:12;;;;;;;7.75;2.00;;;;;;;23.18;53.07;100778.44;5046532;28;20042;-73
2021/07/31 10:13:38;;;;;;;3.03;1.75;;;;;;;21.94;56.87;100782.69;5057225;28;20048;-73
2021/07/31 10:16:04;;;;;;;7.22;2.40;;;;;;;21.73;57.01;100790.78;5077628;28;20047;-73
2021/07/31 10:18:29;;;;;;;2.92;1.60;;;;;;;21.97;57.09;100788.59;5079793;28;20058;-73
2021/07/31 10:21:05;;;;;;;10.40;2.25;;;;;;;22.04;56.74;100789.72;5077605;28;20075;-73
2021/07/31 10:23:55;;;;;;;5.72;2.20;;;;;;;23.56;53.32;100798.00;5064372;28;20063;-73
2021/07/31 10:26:21;;;;;;;5.15;2.08;;;;;;;24.44;49.97;100792.09;5074276;28;20031;-74
2021/07/31 10:28:46;;;;;;;6.25;2.65;;;;;;;25.52;49.32;100786.47;5064503;28;20111;-74
2021/07/31 10:31:41;;;;;;;5.70;2.20;;;;;;;25.33;48.29;100784.88;5065511;28;20273;-74
2021/07/31 10:34:06;;;;;;;6.32;2.75;;;;;;;25.58;47.28;100792.03;5053170;28;20414;-74
2021/07/31 10:36:36;;;;;;;5.18;2.20;;;;;;;25.23;48.02;100801.91;5086497;28;20055;-74
2021/07/31 10:39:26;;;;;;;6.50;2.72;;;;;;;25.29;48.74;100797.75;5071775;28;20033;-74
2021/07/31 10:41:55;;;;;;;5.20;2.13;;;;;;;24.12;50.81;100804.16;5080735;28;20357;-74
2021/07/31 10:44:21;;;;;;;5.05;2.13;;;;;;;22.83;53.87;100805.75;5087836;28;20036;-74
2021/07/31 10:46:46;;;;;;;5.22;2.00;;;;;;;21.33;58.18;100813.75;5070770;28;20263;-74
2021/07/31 10:49:37;;;;;;;5.97;2.10;;;;;;;21.56;57.34;100818.94;5066437;28;20112;-74
2021/07/31 10:52:02;;;;;;;5.47;2.05;;;;;;;23.26;52.99;100818.63;5064402;28;20028;-74
2021/07/31 10:54:59;;;;;;;4.22;2.22;;;;;;;24.07;50.77;100814.47;5068686;28;20303;-74
2021/07/31 10:57:53;;;;;;;2.72;1.80;;;;;;;22.85;54.04;100818.00;5070861;28;20056;-74
2021/07/31 11:00:27;;;;;;;8.73;2.30;;;;;;;22.29;55.10;100824.06;5075820;28;20196;-74
2021/07/31 11:02:53;;;;;;;4.70;2.10;;;;;;;23.74;52.86;100827.44;5082683;28;20321;-74
2021/07/31 11:05:19;;;;;;;5.72;2.80;;;;;;;22.45;55.29;100826.16;5072453;28;20052;-74
2021/07/31 11:08:02;;;;;;;3.58;2.15;;;;;;;22.55;55.22;100829.66;5052779;28;20033;-74
2021/07/31 11:10:32;;;;;;;3.70;2.40;;;;;;;21.71;57.77;100827.41;5073271;28;20218;-74
2021/07/31 11:12:58;;;;;;;3.10;2.40;;;;;;;21.42;58.45;100831.59;5077333;28;20263;-74
2021/07/31 11:15:23;;;;;;;12.38;2.35;;;;;;;21.22;58.76;100835.13;5054464;28;20078;-74
2021/07/31 11:17:56;;;;;;;3.30;2.47;;;;;;;20.89;59.94;100840.53;5068578;28;20291;-74
2021/07/31 11:20:33;;;;;;;9.32;2.00;;;;;;;21.66;57.76;100847.28;5080078;28;20028;-74